Time;durP1;ratioP1;P1;durP2;ratioP2;P2;SDS_P1;SDS_P2;PMS_P1;PMS_P2;Temp;Humidity;BMP_temperature;BMP_pressure;BME280_temperature;BME280_humidity;BME280_pressure;Samples;Min_cycle;Max_cycle;Signal;HPM_P1;HPM_P2
2022/10/24 00:00:58;;;;;;;5.10;2.03;;;-21.80;99.90;;;;;;5030546;28;20303;-69
2022/10/24 00:03:24;;;;;;;5.43;2.43;;;-20.00;99.90;;;;;;5035585;28;20196;-71
2022/10/24 00:05:50;;;;;;;4.20;2.50;;;-19.30;99.90;;;;;;5017168;28;20199;-70
2022/10/24 00:08:16;;;;;;;6.37;2.90;;;-18.00;99.90;;;;;;5028144;28;20239;-71
2022/10/24 00:10:45;;;;;;;6.23;2.53;;;-18.00;99.90;;;;;;5030907;28;20230;-70
2022/10/24 00:13:11;;;;;;;2.77;1.40;;;-17.60;99.90;;;;;;5019524;28;20185;-70
2022/10/24 00:15:38;;;;;;;3.03;1.90;;;-17.10;99.90;;;;;;5028079;28;20177;-70
2022/10/24 00:18:04;;;;;;;6.07;2.37;;;-14.40;99.90;;;;;;5028875;28;20271;-71
2022/10/24 00:20:30;;;;;;;16.17;2.37;;;-15.60;99.90;;;;;;5032139;28;20335;-71
2022/10/24 00:22:56;;;;;;;8.07;2.07;;;-17.00;99.90;;;;;;5038731;28;20205;-71
2022/10/24 00:25:22;;;;;;;5.33;2.67;;;-16.40;99.90;;;;;;5037002;28;20277;-73
2022/10/24 00:27:47;;;;;;;6.93;2.17;;;-18.40;99.90;;;;;;5033921;28;20204;-72
2022/10/24 00:30:13;;;;;;;6.30;2.00;;;-19.90;99.90;;;;;;5034743;28;20187;-72
2022/10/24 00:32:39;;;;;;;5.50;1.80;;;-19.30;99.90;;;;;;5031711;28;20189;-71
2022/10/24 00:35:05;;;;;;;8.67;2.50;;;-17.70;99.90;;;;;;5033728;28;20178;-71
2022/10/24 00:37:31;;;;;;;5.00;1.50;;;-18.50;99.90;;;;;;5031892;28;20186;-71
2022/10/24 00:39:56;;;;;;;8.90;1.73;;;-18.80;99.90;;;;;;5020965;28;20177;-72
2022/10/24 00:42:22;;;;;;;7.23;1.30;;;-16.50;99.90;;;;;;5021123;28;20218;-69
2022/10/24 00:44:52;;;;;;;3.87;1.60;;;-18.70;99.90;;;;;;5020265;28;20174;-71
2022/10/24 00:47:25;;;;;;;3.43;1.60;;;-15.20;99.90;;;;;;5032315;28;20490;-70
2022/10/24 00:50:01;;;;;;;4.23;1.50;;;-16.60;99.90;;;;;;5033517;28;20502;-72
2022/10/24 00:52:32;;;;;;;5.47;1.47;;;-15.50;99.90;;;;;;5033984;28;20279;-78
2022/10/24 00:55:00;;;;;;;4.47;1.97;;;-14.50;99.90;;;;;;5034338;28;20191;-70
2022/10/24 00:57:40;;;;;;;5.23;2.00;;;-16.50;99.90;;;;;;5028639;28;20187;-70
2022/10/24 01:00:10;;;;;;;8.47;1.73;;;-16.30;99.90;;;;;;5032333;28;20176;-71
2022/10/24 01:02:36;;;;;;;3.27;1.73;;;-14.00;99.90;;;;;;5037658;28;20659;-72
2022/10/24 01:05:04;;;;;;;9.30;2.27;;;-13.40;99.90;;;;;;5026790;28;20188;-71
2022/10/24 01:07:42;;;;;;;2.87;1.40;;;-16.20;99.90;;;;;;5038253;28;20183;-71
2022/10/24 01:10:26;;;;;;;1.50;1.30;;;-15.50;99.90;;;;;;5032099;28;20175;-72
2022/10/24 01:12:57;;;;;;;2.70;1.33;;;-17.00;99.90;;;;;;5020320;28;20177;-71
2022/10/24 01:15:38;;;;;;;4.77;2.00;;;-13.90;99.90;;;;;;5032205;28;20185;-72
2022/10/24 01:18:10;;;;;;;5.07;1.77;;;-18.80;99.90;;;;;;5026551;28;20673;-71
2022/10/24 01:21:07;;;;;;;4.30;1.50;;;-12.40;99.90;;;;;;5029107;28;20227;-71
2022/10/24 01:23:48;;;;;;;4.87;2.13;;;-14.30;99.90;;;;;;5034112;28;20366;-70
2022/10/24 01:26:49;;;;;;;2.77;1.30;;;-13.70;99.90;;;;;;5033442;28;20588;-69
2022/10/24 01:29:52;;;;;;;6.90;1.63;;;-13.00;99.90;;;;;;5031716;28;20307;-77
2022/10/24 01:32:34;;;;;;;6.23;1.77;;;-16.10;99.90;;;;;;5036106;28;20197;-77
2022/10/24 01:35:21;;;;;;;3.93;1.57;;;-14.80;99.90;;;;;;5032955;28;20267;-78
2022/10/24 01:38:16;;;;;;;12.17;2.73;;;-14.90;99.90;;;;;;5036362;28;20479;-76
2022/10/24 01:40:49;;;;;;;4.27;2.20;;;-16.00;99.90;;;;;;5033613;28;20215;-77
2022/10/24 01:43:20;;;;;;;1.90;1.57;;;-13.20;99.90;;;;;;5046256;28;20217;-74
2022/10/24 01:45:51;;;;;;;5.30;2.37;;;-11.10;99.90;;;;;;5036826;28;20267;-77
2022/10/24 01:48:20;;;;;;;3.27;1.30;;;-13.60;99.90;;;;;;5026182;28;20177;-77
2022/10/24 01:50:50;;;;;;;4.47;1.40;;;-11.20;99.90;;;;;;5031029;28;20173;-74
2022/10/24 01:53:16;;;;;;;4.90;1.80;;;-13.40;99.90;;;;;;5037452;28;20180;-76
2022/10/24 01:55:43;;;;;;;3.77;1.57;;;-14.30;99.90;;;;;;5052762;28;20181;-76
2022/10/24 01:58:09;;;;;;;5.50;1.93;;;-13.20;99.90;;;;;;5029640;28;20214;-78
2022/10/24 02:00:34;;;;;;;4.00;1.60;;;-13.70;99.90;;;;;;5026313;28;20236;-75
2022/10/24 02:03:33;;;;;;;5.80;1.87;;;-13.00;99.90;;;;;;5037462;28;20216;-72
2022/10/24 02:06:04;;;;;;;5.10;1.90;;;-10.90;99.90;;;;;;5023507;28;20235;-76
2022/10/24 02:08:36;;;;;;;3.77;1.50;;;-12.50;99.90;;;;;;5022926;28;20231;-78
2022/10/24 02:11:04;;;;;;;5.77;1.23;;;-13.00;99.90;;;;;;5032498;28;20177;-78
2022/10/24 02:14:08;;;;;;;10.00;1.83;;;-14.00;99.90;;;;;;5031057;28;20269;-74
2022/10/24 02:16:34;;;;;;;6.53;1.53;;;-13.50;99.90;;;;;;5033187;28;20191;-76
2022/10/24 02:18:59;;;;;;;2.80;1.13;;;-13.80;99.90;;;;;;5031298;28;20188;-77
2022/10/24 02:21:41;;;;;;;4.17;1.70;;;-12.40;99.90;;;;;;5018632;28;20540;-80
2022/10/24 02:24:18;;;;;;;4.00;1.40;;;-13.20;99.90;;;;;;5018685;28;20169;-77
2022/10/24 02:26:47;;;;;;;8.40;2.13;;;-12.70;99.90;;;;;;5023601;28;20190;-76
2022/10/24 02:29:42;;;;;;;3.53;1.77;;;-14.30;99.90;;;;;;5047667;28;20272;-79
2022/10/24 02:32:14;;;;;;;13.67;3.33;;;-11.50;99.90;;;;;;5028594;28;20531;-78
2022/10/24 02:34:41;;;;;;;4.90;1.20;;;-11.30;99.90;;;;;;5036368;28;20219;-79
2022/10/24 02:37:09;;;;;;;6.50;2.27;;;-9.90;99.90;;;;;;5036576;28;20521;-77
2022/10/24 02:39:36;;;;;;;18.70;2.07;;;-11.80;99.90;;;;;;5035956;28;20192;-77
2022/10/24 02:42:04;;;;;;;4.63;1.50;;;-10.10;99.90;;;;;;5036081;28;20197;-77
2022/10/24 02:44:31;;;;;;;3.80;2.17;;;-11.10;99.90;;;;;;5035076;28;20457;-76
2022/10/24 02:47:00;;;;;;;4.97;1.33;;;-12.70;99.90;;;;;;5029933;28;20220;-78
2022/10/24 02:49:26;;;;;;;5.33;1.67;;;-11.50;99.90;;;;;;5026113;28;20581;-78
2022/10/24 02:51:52;;;;;;;6.37;1.83;;;-10.20;99.90;;;;;;5019772;28;20236;-79
2022/10/24 02:54:18;;;;;;;8.20;1.93;;;-15.50;99.90;;;;;;5027564;28;20193;-73
2022/10/24 02:56:48;;;;;;;7.77;2.23;;;-13.70;99.90;;;;;;5030812;28;20188;-75
2022/10/24 02:59:14;;;;;;;1.73;1.50;;;-11.20;99.90;;;;;;5028137;28;20196;-76
2022/10/24 03:01:40;;;;;;;6.07;2.50;;;-10.50;99.90;;;;;;5035324;28;20508;-78
2022/10/24 03:04:05;;;;;;;7.27;1.73;;;-13.10;99.90;;;;;;5030752;28;20181;-75
2022/10/24 03:06:31;;;;;;;4.87;2.00;;;-10.80;99.90;;;;;;5026676;28;20177;-79
2022/10/24 03:08:57;;;;;;;4.33;1.60;;;-10.70;99.90;;;;;;5044931;28;20175;-78
2022/10/24 03:11:23;;;;;;;11.23;1.67;;;-9.80;99.90;;;;;;5022973;28;20185;-79
2022/10/24 03:13:50;;;;;;;11.00;1.87;;;-10.20;99.90;;;;;;5033917;28;20181;-77
2022/10/24 03:16:15;;;;;;;7.03;3.10;;;-10.90;99.90;;;;;;5034180;28;20185;-77
2022/10/24 03:18:41;;;;;;;9.97;2.50;;;-11.90;99.90;;;;;;5034843;28;20210;-76
2022/10/24 03:21:07;;;;;;;3.77;1.57;;;-10.70;99.90;;;;;;5030314;28;20648;-71
2022/10/24 03:23:33;;;;;;;3.87;1.77;;;-12.70;99.90;;;;;;5024053;28;20173;-73
2022/10/24 03:25:59;;;;;;;5.33;1.53;;;-10.90;99.90;;;;;;5023756;28;20576;-73
2022/10/24 03:28:24;;;;;;;7.20;1.77;;;-11.80;99.90;;;;;;5028956;28;20191;-78
2022/10/24 03:30:52;;;;;;;4.13;1.50;;;-11.90;99.90;;;;;;5049862;28;20185;-77
2022/10/24 03:33:18;;;;;;;7.23;2.10;;;-12.30;99.90;;;;;;5035117;28;20271;-78
2022/10/24 03:35:44;;;;;;;12.43;2.70;;;-11.20;99.90;;;;;;5026444;28;20184;-78
2022/10/24 03:38:10;;;;;;;3.87;1.60;;;-12.60;99.90;;;;;;5034645;28;20258;-77
2022/10/24 03:40:36;;;;;;;14.10;1.80;;;-11.80;99.90;;;;;;5023158;28;20225;-77
2022/10/24 03:43:02;;;;;;;7.43;1.70;;;-12.30;99.90;;;;;;5029590;28;20175;-78
2022/10/24 03:45:28;;;;;;;7.17;1.93;;;-12.20;99.90;;;;;;5034814;28;20181;-76
2022/10/24 03:47:54;;;;;;;10.57;2.40;;;-11.40;99.90;;;;;;5032089;28;20211;-80
2022/10/24 03:50:20;;;;;;;4.20;1.63;;;-11.40;99.90;;;;;;5030253;28;20603;-79
2022/10/24 03:52:45;;;;;;;3.57;1.47;;;-9.90;99.90;;;;;;5023184;28;20230;-75
2022/10/24 03:55:12;;;;;;;7.63;2.03;;;-11.40;99.90;;;;;;5030437;28;20189;-78
2022/10/24 03:57:38;;;;;;;8.90;3.37;;;-11.80;99.90;;;;;;5024355;28;20173;-76
2022/10/24 04:00:05;;;;;;;5.20;1.47;;;-11.90;99.90;;;;;;5020216;28;20176;-77
2022/10/24 04:02:31;;;;;;;4.50;2.13;;;-11.80;99.90;;;;;;5028619;28;162821;-77
2022/10/24 04:04:56;;;;;;;5.63;2.60;;;-15.10;99.90;;;;;;5028140;28;20188;-76
2022/10/24 04:07:22;;;;;;;6.63;1.83;;;-11.10;99.90;;;;;;5017616;28;20191;-76
2022/10/24 04:09:48;;;;;;;4.63;2.13;;;-11.80;99.90;;;;;;5036829;28;20239;-78
2022/10/24 04:12:14;;;;;;;7.03;2.40;;;-10.30;99.90;;;;;;5030807;28;20197;-76
2022/10/24 04:14:40;;;;;;;6.87;2.17;;;-12.40;99.90;;;;;;5050403;28;20180;-73
2022/10/24 04:17:06;;;;;;;10.57;1.80;;;-12.50;99.90;;;;;;5030829;28;20188;-78
2022/10/24 04:19:32;;;;;;;9.77;3.57;;;-11.40;99.90;;;;;;5029629;28;20562;-76
2022/10/24 04:21:58;;;;;;;5.83;1.30;;;-11.20;99.90;;;;;;5029100;28;20199;-73
2022/10/24 04:24:24;;;;;;;7.93;1.97;;;-12.60;99.90;;;;;;5035105;28;20177;-74
2022/10/24 04:26:50;;;;;;;4.90;1.80;;;-13.80;99.90;;;;;;5035105;28;20185;-73
2022/10/24 04:29:16;;;;;;;9.53;2.67;;;-11.30;99.90;;;;;;5035126;28;20629;-73
2022/10/24 04:31:41;;;;;;;12.37;2.67;;;-11.60;99.90;;;;;;5035040;28;20498;-73
2022/10/24 04:34:07;;;;;;;8.07;2.63;;;-12.40;99.90;;;;;;5035115;28;20553;-73
2022/10/24 04:36:33;;;;;;;9.90;3.53;;;-9.00;99.90;;;;;;5034887;28;20215;-72
2022/10/24 04:38:59;;;;;;;9.40;2.27;;;-9.30;99.90;;;;;;5030241;28;20188;-75
2022/10/24 04:41:25;;;;;;;3.90;1.67;;;-9.90;99.90;;;;;;5022675;28;20213;-72
2022/10/24 04:43:53;;;;;;;10.47;3.63;;;-9.90;99.90;;;;;;5024937;28;20188;-72
2022/10/24 04:46:19;;;;;;;6.23;2.07;;;-9.60;99.90;;;;;;5029101;28;20196;-77
2022/10/24 04:48:45;;;;;;;5.93;2.00;;;-10.90;99.90;;;;;;5023338;28;20184;-77
2022/10/24 04:51:11;;;;;;;10.20;1.90;;;-12.40;99.90;;;;;;5034801;28;20499;-78
2022/10/24 04:53:36;;;;;;;7.77;2.90;;;-12.70;99.90;;;;;;5034736;28;20499;-72
2022/10/24 04:56:02;;;;;;;9.50;2.60;;;-12.00;99.90;;;;;;5024880;28;20181;-71
2022/10/24 04:58:28;;;;;;;6.47;2.10;;;-11.80;99.90;;;;;;5025395;28;20521;-76
2022/10/24 05:00:54;;;;;;;6.60;2.73;;;-13.10;99.90;;;;;;5029832;28;20248;-71
2022/10/24 05:03:21;;;;;;;10.13;2.00;;;-8.60;99.90;;;;;;5047632;28;20215;-71
2022/10/24 05:05:46;;;;;;;7.13;3.27;;;-11.90;99.90;;;;;;5037742;28;20181;-71
2022/10/24 05:08:12;;;;;;;6.30;2.53;;;-9.40;99.90;;;;;;5038085;28;20188;-74
2022/10/24 05:10:38;;;;;;;6.90;1.93;;;-12.50;99.90;;;;;;5031305;28;20259;-71
2022/10/24 05:13:04;;;;;;;8.90;2.70;;;-10.40;99.90;;;;;;5034854;28;20200;-73
2022/10/24 05:15:30;;;;;;;12.07;2.73;;;-10.40;99.90;;;;;;5020429;28;20181;-75
2022/10/24 05:17:57;;;;;;;8.97;2.00;;;-11.10;99.90;;;;;;5031340;28;20271;-76
2022/10/24 05:20:23;;;;;;;8.80;2.13;;;-9.60;99.90;;;;;;5037422;28;20192;-74
2022/10/24 05:22:48;;;;;;;5.60;1.90;;;-9.70;99.90;;;;;;5038105;28;20572;-78
2022/10/24 05:25:14;;;;;;;8.17;2.90;;;-8.50;99.90;;;;;;5028667;28;20635;-84
2022/10/24 05:27:40;;;;;;;11.23;3.33;;;-9.80;99.90;;;;;;5038544;28;20185;-72
2022/10/24 05:30:06;;;;;;;4.83;2.03;;;-9.20;99.90;;;;;;5025200;28;20239;-79
2022/10/24 05:32:32;;;;;;;8.90;2.53;;;-10.20;99.90;;;;;;5029116;28;20642;-72
2022/10/24 05:34:58;;;;;;;8.20;2.53;;;-9.70;99.90;;;;;;5037329;28;20184;-76
2022/10/24 05:37:24;;;;;;;11.43;3.10;;;-11.90;99.90;;;;;;5037571;28;20192;-74
2022/10/24 05:39:50;;;;;;;9.90;2.77;;;-11.00;99.90;;;;;;5031622;28;20309;-77
2022/10/24 05:42:16;;;;;;;8.43;2.47;;;-12.60;99.90;;;;;;5024721;28;20240;-83
2022/10/24 05:44:42;;;;;;;10.27;2.20;;;-10.50;99.90;;;;;;5037593;28;20180;-75
2022/10/24 05:47:07;;;;;;;13.43;3.17;;;-11.20;99.90;;;;;;5026799;28;20187;-72
2022/10/24 05:49:33;;;;;;;5.43;2.13;;;-12.60;99.90;;;;;;5024816;28;20597;-76
2022/10/24 05:51:59;;;;;;;13.37;2.17;;;-11.50;99.90;;;;;;5031903;28;20496;-74
2022/10/24 05:54:25;;;;;;;11.87;3.13;;;-11.60;99.90;;;;;;5031282;28;20206;-74
2022/10/24 05:56:50;;;;;;;7.87;2.33;;;-10.80;99.90;;;;;;5037374;28;20239;-72
2022/10/24 05:59:16;;;;;;;5.77;1.83;;;-10.40;99.90;;;;;;5032428;28;20221;-74
2022/10/24 06:01:42;;;;;;;9.97;2.10;;;-10.20;99.90;;;;;;5036232;28;20213;-73
2022/10/24 06:04:08;;;;;;;14.10;2.73;;;-10.80;99.90;;;;;;5030446;28;20331;-73
2022/10/24 06:06:42;;;;;;;7.80;2.30;;;-11.00;99.90;;;;;;5030758;28;20611;-76
2022/10/24 06:09:08;;;;;;;13.20;2.53;;;-11.30;99.90;;;;;;5050646;28;20188;-75
2022/10/24 06:11:34;;;;;;;19.77;3.83;;;-12.60;99.90;;;;;;5029252;28;20188;-77
2022/10/24 06:14:00;;;;;;;6.93;2.27;;;-13.30;99.90;;;;;;5032606;28;20184;-74
2022/10/24 06:16:29;;;;;;;17.33;3.73;;;-9.80;99.90;;;;;;5035886;28;20189;-75
2022/10/24 06:18:55;;;;;;;12.60;3.80;;;-9.60;99.90;;;;;;5035469;28;20188;-75
2022/10/24 06:21:22;;;;;;;8.33;2.53;;;-13.40;99.90;;;;;;5036992;28;20330;-75
2022/10/24 06:23:47;;;;;;;15.27;3.80;;;-16.30;99.90;;;;;;5035780;28;20185;-73
2022/10/24 06:26:13;;;;;;;17.20;3.80;;;-13.20;99.90;;;;;;5052546;28;20192;-73
2022/10/24 06:28:40;;;;;;;20.83;2.80;;;-11.40;99.90;;;;;;5032040;28;20188;-74
2022/10/24 06:31:07;;;;;;;12.13;2.77;;;-7.60;99.90;;;;;;5028890;28;20229;-72
2022/10/24 06:33:34;;;;;;;14.93;3.03;;;-8.30;99.90;;;;;;5040645;28;21090;-73
2022/10/24 06:36:00;;;;;;;8.93;2.30;;;-8.70;99.90;;;;;;5028126;28;20713;-70
2022/10/24 06:38:27;;;;;;;10.13;2.57;;;-12.30;99.90;;;;;;5025074;28;20188;-76
2022/10/24 06:40:52;;;;;;;12.63;3.90;;;-11.30;99.90;;;;;;5035575;28;20196;-75
2022/10/24 06:43:19;;;;;;;15.47;4.17;;;-10.00;99.90;;;;;;5036708;28;20184;-76
2022/10/24 06:45:45;;;;;;;12.90;3.23;;;-10.20;99.90;;;;;;5038255;28;20243;-72
2022/10/24 06:48:11;;;;;;;5.53;1.77;;;-9.90;99.90;;;;;;5029405;28;20551;-76
2022/10/24 06:50:39;;;;;;;14.83;3.90;;;-11.00;99.90;;;;;;5045061;28;20216;-78
2022/10/24 06:53:06;;;;;;;7.53;2.50;;;-12.20;99.90;;;;;;5030194;28;20185;-73
2022/10/24 06:55:32;;;;;;;10.40;3.27;;;-10.00;99.90;;;;;;5028582;28;20584;-73
2022/10/24 06:57:58;;;;;;;8.13;1.80;;;-12.90;99.90;;;;;;5031462;28;20181;-75
2022/10/24 07:00:24;;;;;;;8.20;3.87;;;-9.60;99.90;;;;;;5032318;28;20481;-71
2022/10/24 07:02:50;;;;;;;22.97;3.80;;;-10.20;99.90;;;;;;5034871;28;20588;-71
2022/10/24 07:05:16;;;;;;;7.03;3.30;;;-9.90;99.90;;;;;;5022004;28;20192;-71
2022/10/24 07:07:42;;;;;;;8.07;2.30;;;-9.10;99.90;;;;;;5027697;28;20212;-74
2022/10/24 07:10:11;;;;;;;6.23;2.27;;;-9.40;99.90;;;;;;5028520;28;20625;-72
2022/10/24 07:12:37;;;;;;;9.90;2.00;;;-8.90;99.90;;;;;;5035964;28;20227;-73
2022/10/24 07:15:03;;;;;;;12.37;2.80;;;-9.20;99.90;;;;;;5035823;28;20184;-78
2022/10/24 07:17:29;;;;;;;9.87;2.93;;;-9.00;99.90;;;;;;5029598;28;20542;-74
2022/10/24 07:19:56;;;;;;;15.47;2.80;;;-9.50;99.90;;;;;;5035907;28;20219;-75
2022/10/24 07:22:22;;;;;;;10.47;3.23;;;-10.00;99.90;;;;;;5024719;28;20215;-78
2022/10/24 07:24:54;;;;;;;9.47;3.20;;;-9.60;99.90;;;;;;5033829;28;20195;-75
2022/10/24 07:27:21;;;;;;;9.37;4.50;;;-10.00;99.90;;;;;;5035802;28;20578;-79
2022/10/24 07:29:47;;;;;;;12.50;2.83;;;-9.80;99.90;;;;;;5031188;28;20272;-75
2022/10/24 07:32:13;;;;;;;11.83;3.23;;;-9.50;99.90;;;;;;5028051;28;20279;-77
2022/10/24 07:34:39;;;;;;;13.20;3.83;;;-10.80;99.90;;;;;;5040408;28;20217;-76
2022/10/24 07:37:05;;;;;;;11.20;3.43;;;-11.60;99.90;;;;;;5016944;28;20212;-77
2022/10/24 07:39:31;;;;;;;10.90;2.90;;;-10.30;99.90;;;;;;5028012;28;20592;-72
2022/10/24 07:41:57;;;;;;;24.10;4.90;;;-9.30;99.90;;;;;;5017310;28;20297;-76
2022/10/24 07:44:22;;;;;;;11.30;4.20;;;-8.70;99.90;;;;;;5034556;28;20553;-78
2022/10/24 07:46:48;;;;;;;10.83;2.93;;;-8.00;99.90;;;;;;5030327;28;20180;-77
2022/10/24 07:49:14;;;;;;;10.60;3.83;;;-8.10;99.90;;;;;;5035556;28;20271;-76
2022/10/24 07:51:41;;;;;;;12.87;3.73;;;-7.40;99.90;;;;;;5030597;28;20271;-75
2022/10/24 07:54:07;;;;;;;8.27;3.23;;;-9.00;99.90;;;;;;5031441;28;20195;-73
2022/10/24 07:56:33;;;;;;;10.00;3.40;;;-10.20;99.90;;;;;;5030844;28;20185;-75
2022/10/24 07:59:00;;;;;;;10.90;3.10;;;-8.00;99.90;;;;;;5032507;28;20759;-74
2022/10/24 08:01:27;;;;;;;10.97;2.70;;;-7.50;99.90;;;;;;5030492;28;20644;-75
2022/10/24 08:03:53;;;;;;;11.83;3.33;;;-6.10;99.90;;;;;;5031911;28;20180;-74
2022/10/24 08:06:23;;;;;;;10.77;3.73;;;-7.70;99.90;;;;;;5035181;28;20226;-76
2022/10/24 08:08:49;;;;;;;19.33;4.07;;;-7.30;99.90;;;;;;5035424;28;20179;-77
2022/10/24 08:11:25;;;;;;;11.03;4.20;;;-9.10;99.90;;;;;;5035211;28;20193;-78
2022/10/24 08:13:53;;;;;;;9.00;3.20;;;-8.80;99.90;;;;;;5034976;28;20208;-73
2022/10/24 08:16:20;;;;;;;7.83;3.90;;;-8.70;99.90;;;;;;5034769;28;20230;-72
2022/10/24 08:18:47;;;;;;;18.73;3.97;;;-9.30;99.90;;;;;;5030523;28;20184;-72
2022/10/24 08:21:14;;;;;;;20.50;4.07;;;-6.60;99.90;;;;;;5027751;28;20259;-77
2022/10/24 08:23:43;;;;;;;7.73;2.93;;;-6.80;99.90;;;;;;5025773;28;20246;-74
2022/10/24 08:26:12;;;;;;;13.87;3.73;;;-10.70;99.90;;;;;;5021969;28;20641;-71
2022/10/24 08:28:38;;;;;;;15.03;3.73;;;-9.50;99.90;;;;;;5016518;28;20177;-76
2022/10/24 08:31:07;;;;;;;7.57;2.43;;;-12.10;99.90;;;;;;5030724;28;20275;-72
2022/10/24 08:33:33;;;;;;;5.10;2.00;;;-9.60;99.90;;;;;;5050800;28;20664;-75
2022/10/24 08:36:03;;;;;;;11.97;3.00;;;-9.00;99.90;;;;;;5023639;28;20196;-76
2022/10/24 08:38:29;;;;;;;8.33;2.87;;;-13.60;99.90;;;;;;5033049;28;20181;-76
2022/10/24 08:40:56;;;;;;;9.60;3.50;;;-9.60;99.90;;;;;;5033977;28;20262;-75
2022/10/24 08:43:23;;;;;;;18.33;2.93;;;-11.70;99.90;;;;;;5026848;28;20192;-74
2022/10/24 08:45:49;;;;;;;8.97;2.77;;;-11.70;99.90;;;;;;5033934;28;20215;-79
2022/10/24 08:48:21;;;;;;;11.17;3.43;;;-10.80;99.90;;;;;;5038708;28;20603;-78
2022/10/24 08:50:52;;;;;;;11.93;2.57;;;-10.00;99.90;;;;;;5031721;28;20379;-74
2022/10/24 08:53:28;;;;;;;7.63;2.77;;;-9.50;99.90;;;;;;5036881;28;20189;-74
2022/10/24 08:55:57;;;;;;;8.97;3.37;;;-9.70;99.90;;;;;;5020875;28;20206;-75
2022/10/24 08:58:36;;;;;;;7.27;2.43;;;-7.70;99.90;;;;;;5044196;28;20567;-73
2022/10/24 09:01:15;;;;;;;9.37;3.90;;;-12.50;99.90;;;;;;5032771;28;20234;-74
2022/10/24 09:03:44;;;;;;;15.73;3.77;;;-8.50;99.90;;;;;;5038445;28;20181;-74
2022/10/24 09:06:16;;;;;;;11.80;3.43;;;-8.30;99.90;;;;;;5050675;28;20578;-74
2022/10/24 09:09:02;;;;;;;18.10;2.73;;;-9.30;99.90;;;;;;5036451;28;20184;-74
2022/10/24 09:11:46;;;;;;;9.47;4.00;;;-9.70;99.90;;;;;;5028451;28;20188;-75
2022/10/24 09:14:19;;;;;;;12.37;2.97;;;-16.00;99.90;;;;;;5038324;28;20267;-77
2022/10/24 09:16:52;;;;;;;12.13;4.47;;;-12.60;99.90;;;;;;5037986;28;20242;-74
2022/10/24 09:19:21;;;;;;;14.63;3.07;;;-12.20;99.90;;;;;;5031026;28;20185;-77
2022/10/24 09:21:48;;;;;;;5.50;2.33;;;-11.30;99.90;;;;;;5028728;28;20201;-71
2022/10/24 09:24:27;;;;;;;10.87;3.63;;;-10.90;99.90;;;;;;5038530;28;20189;-76
2022/10/24 09:26:53;;;;;;;9.70;3.90;;;-10.10;99.90;;;;;;5024174;28;20212;-77
2022/10/24 09:29:21;;;;;;;12.07;3.07;;;-10.10;99.90;;;;;;5027676;28;20261;-75
2022/10/24 09:31:48;;;;;;;7.03;2.70;;;-8.80;99.90;;;;;;5042036;28;20201;-76
2022/10/24 09:34:16;;;;;;;16.80;3.77;;;-13.10;99.90;;;;;;5049264;28;20196;-76
2022/10/24 09:36:41;;;;;;;10.63;2.70;;;-11.40;99.90;;;;;;5037865;28;20212;-76
2022/10/24 09:39:29;;;;;;;9.40;2.20;;;-9.30;99.90;;;;;;5033744;28;20295;-76
2022/10/24 09:41:57;;;;;;;13.07;2.97;;;-12.90;99.90;;;;;;5031109;28;20228;-73
2022/10/24 09:44:31;;;;;;;7.53;2.57;;;-10.20;99.90;;;;;;5032579;28;20279;-73
2022/10/24 09:46:57;;;;;;;13.07;3.27;;;-9.70;99.90;;;;;;5048859;28;20199;-73
2022/10/24 09:49:30;;;;;;;14.07;4.93;;;-10.80;99.90;;;;;;5031832;28;20264;-73
2022/10/24 09:52:18;;;;;;;9.03;2.57;;;-14.70;99.90;;;;;;5031126;28;20212;-73
2022/10/24 09:54:45;;;;;;;12.73;3.93;;;-12.30;99.90;;;;;;5035755;28;20184;-73
2022/10/24 09:57:11;;;;;;;6.77;2.03;;;-14.80;99.90;;;;;;5032005;28;20187;-73
2022/10/24 09:59:47;;;;;;;8.70;2.70;;;-13.10;99.90;;;;;;5040917;28;20185;-76
2022/10/24 10:02:18;;;;;;;12.23;3.47;;;-11.10;99.90;;;;;;5015867;28;20221;-74
2022/10/24 10:04:47;;;;;;;9.73;2.57;;;-9.80;99.90;;;;;;5035824;28;20184;-72
2022/10/24 10:07:26;;;;;;;7.70;2.47;;;-11.80;99.90;;;;;;5031884;28;20191;-74
2022/10/24 10:09:55;;;;;;;8.03;2.37;;;-14.90;99.90;;;;;;5027069;28;20188;-77
2022/10/24 10:12:31;;;;;;;6.30;2.33;;;-15.70;99.90;;;;;;5025323;28;20272;-74
2022/10/24 10:14:59;;;;;;;12.10;3.00;;;-20.40;99.90;;;;;;5044685;28;20263;-75
2022/10/24 10:17:27;;;;;;;10.27;2.60;;;-19.30;99.90;;;;;;5022610;28;20194;-72
2022/10/24 10:19:54;;;;;;;10.43;2.80;;;-12.40;99.90;;;;;;5021277;28;20272;-72
2022/10/24 10:22:31;;;;;;;14.63;3.37;;;-12.30;99.90;;;;;;5018310;28;20292;-75
2022/10/24 10:24:58;;;;;;;6.40;2.87;;;-9.90;99.90;;;;;;5024711;28;20203;-73
2022/10/24 10:27:29;;;;;;;16.80;2.73;;;-8.90;99.90;;;;;;5030140;28;20276;-72
2022/10/24 10:30:15;;;;;;;8.20;3.43;;;-19.00;99.90;;;;;;5031703;28;20219;-72
2022/10/24 10:33:09;;;;;;;9.80;3.30;;;-19.00;99.90;;;;;;5029125;28;20203;-71
2022/10/24 10:35:50;;;;;;;16.30;4.07;;;-18.50;99.90;;;;;;5036661;28;20188;-73
2022/10/24 10:38:35;;;;;;;6.60;2.17;;;-17.00;99.90;;;;;;5036899;28;20258;-74
2022/10/24 10:41:14;;;;;;;7.40;2.63;;;-18.20;99.90;;;;;;5022615;28;20627;-73
2022/10/24 10:44:19;;;;;;;7.20;2.10;;;-14.50;99.90;;;;;;5030169;28;20212;-74
2022/10/24 10:47:19;;;;;;;14.20;2.93;;;-13.20;99.90;;;;;;5018699;28;20649;-71
2022/10/24 10:49:49;;;;;;;9.47;2.73;;;-13.50;99.90;;;;;;5030014;28;20220;-73
2022/10/24 10:52:24;;;;;;;7.20;2.07;;;-12.80;99.90;;;;;;5034915;28;20476;-72
2022/10/24 10:55:08;;;;;;;5.97;1.97;;;-14.70;99.90;;;;;;5031567;28;20585;-72
2022/10/24 10:57:44;;;;;;;9.27;3.00;;;-15.10;99.90;;;;;;5032391;28;20185;-72
2022/10/24 11:00:30;;;;;;;7.17;2.40;;;-14.70;99.90;;;;;;5030714;28;20262;-73
2022/10/24 11:03:09;;;;;;;11.90;2.40;;;-25.60;99.90;;;;;;5015868;28;20513;-72
2022/10/24 11:05:51;;;;;;;12.67;3.40;;;-17.60;99.90;;;;;;5045633;28;20195;-72
2022/10/24 11:08:53;;;;;;;5.70;1.83;;;-18.50;99.90;;;;;;5035711;28;20264;-74
2022/10/24 11:11:25;;;;;;;7.47;2.70;;;-12.70;99.90;;;;;;5018794;28;20562;-72
2022/10/24 11:14:24;;;;;;;8.53;2.57;;;-17.90;99.90;;;;;;5024640;28;20180;-73
2022/10/24 11:16:55;;;;;;;7.50;2.53;;;-18.80;99.90;;;;;;5030037;28;20192;-72
2022/10/24 11:19:31;;;;;;;8.80;2.67;;;-20.90;99.90;;;;;;5023806;28;20616;-74
2022/10/24 11:22:02;;;;;;;9.27;2.00;;;-15.40;99.90;;;;;;5020806;28;20295;-73
2022/10/24 11:24:41;;;;;;;6.87;2.50;;;-12.70;99.90;;;;;;5032086;28;20193;-73
2022/10/24 11:27:20;;;;;;;7.93;2.47;;;-10.70;99.90;;;;;;5035721;28;20703;-73
2022/10/24 11:30:04;;;;;;;10.33;2.40;;;-13.90;99.90;;;;;;5033430;28;20188;-73
2022/10/24 11:32:49;;;;;;;6.77;1.67;;;-16.30;99.90;;;;;;5033282;28;20199;-74
2022/10/24 11:35:28;;;;;;;4.37;1.90;;;-15.70;99.90;;;;;;5030536;28;20239;-73
2022/10/24 11:38:17;;;;;;;6.03;2.23;;;-12.80;99.90;;;;;;5029445;28;20225;-76
2022/10/24 11:40:47;;;;;;;11.30;3.23;;;-13.50;99.90;;;;;;5024433;28;20181;-71
2022/10/24 11:43:23;;;;;;;5.17;2.07;;;-12.90;99.90;;;;;;5028253;28;20185;-73
2022/10/24 11:46:20;;;;;;;4.87;1.63;;;-14.80;99.90;;;;;;5035454;28;20587;-72
2022/10/24 11:49:08;;;;;;;6.43;1.47;;;-11.70;99.90;;;;;;5046121;28;20204;-73
2022/10/24 11:51:50;;;;;;;10.13;2.60;;;-11.70;99.90;;;;;;5032397;28;20198;-72
2022/10/24 11:54:20;;;;;;;4.80;2.03;;;-12.30;99.90;;;;;;5035428;28;20203;-73
2022/10/24 11:56:53;;;;;;;5.53;1.57;;;-13.70;99.90;;;;;;5035353;28;20199;-72
2022/10/24 11:59:23;;;;;;;17.03;2.23;;;-11.10;99.90;;;;;;5035399;28;20215;-70
2022/10/24 12:01:55;;;;;;;13.17;2.90;;;-19.30;99.90;;;;;;5028480;28;20216;-71
2022/10/24 12:04:55;;;;;;;20.50;2.83;;;-20.90;99.90;;;;;;5021658;28;20192;-71
2022/10/24 12:07:40;;;;;;;18.27;4.63;;;-13.30;99.90;;;;;;5022178;28;20177;-69
2022/10/24 12:10:30;;;;;;;7.27;1.87;;;-13.70;99.90;;;;;;5024062;28;20181;-70
2022/10/24 12:13:23;;;;;;;16.03;2.80;;;-13.20;99.90;;;;;;5036635;28;20196;-68
2022/10/24 12:16:15;;;;;;;10.17;2.50;;;-11.30;99.90;;;;;;5039566;28;20192;-70
2022/10/24 12:18:47;;;;;;;17.67;3.07;;;-11.20;99.90;;;;;;5015358;28;20200;-70
2022/10/24 12:21:17;;;;;;;11.50;2.03;;;-11.60;99.90;;;;;;5033007;28;20204;-73
2022/10/24 12:23:53;;;;;;;9.23;2.97;;;-12.00;99.90;;;;;;5034278;28;20192;-72
2022/10/24 12:26:24;;;;;;;12.47;2.50;;;-10.80;99.90;;;;;;5031315;28;20185;-69
2022/10/24 12:29:01;;;;;;;6.40;2.57;;;-9.60;99.90;;;;;;5033613;28;20191;-70
2022/10/24 12:31:32;;;;;;;7.27;3.07;;;-13.20;99.90;;;;;;5033951;28;20196;-70
2022/10/24 12:34:21;;;;;;;10.13;2.53;;;-7.40;99.90;;;;;;5034900;28;20475;-70
2022/10/24 12:37:18;;;;;;;10.30;3.67;;;-9.10;99.90;;;;;;5025606;28;20490;-69
2022/10/24 12:39:49;;;;;;;10.90;3.37;;;-8.90;99.90;;;;;;5054134;28;20181;-71
2022/10/24 12:42:23;;;;;;;9.57;2.80;;;-11.10;99.90;;;;;;5035297;28;20302;-69
2022/10/24 12:44:50;;;;;;;9.03;1.87;;;-16.90;99.90;;;;;;5038966;28;20258;-70
2022/10/24 12:47:35;;;;;;;12.13;2.83;;;-13.10;99.90;;;;;;5038508;28;20188;-72
2022/10/24 12:50:22;;;;;;;7.63;2.60;;;-12.40;99.90;;;;;;5035337;28;20180;-74
2022/10/24 12:53:29;;;;;;;10.33;2.10;;;-11.80;99.90;;;;;;5026955;28;20607;-71
2022/10/24 12:55:54;;;;;;;11.87;3.47;;;-11.90;99.90;;;;;;5048939;28;20264;-69